Terminal Aerodrome Forecast
Issued by NWS Cleveland, OH

Home | Current Version | Previous Version | Graphics & Text | Print | Product List | Glossary On
Versions: 1 2 3 4 5 6 7 8 9 10 11 12 13 14 15 16 17 18 19 20 21 22 23 24 25 26 27 28 29 30 31 32 33 34 35 36 37 38 39 40 41
000
FTUS41 KCLE 022000 AAA
TAFCLE
TAF AMD
KCLE 022041Z 0221/0324 27006KT P6SM FEW020 SCT200
     FM030200 VRB03KT P6SM BKN090 OVC200
     FM031400 16008KT 5SM -SN OVC040
     FM031600 15012KT 4SM -FZRASNPL BR SCT015 OVC040
     FM031800 16010KT 6SM -RA BR OVC009=

USA.gov is the U.S. government's official web portal to all federal, state and local government web resources and services.